sensor_id;sensor_type;location;lat;lon;timestamp;P1;durP1;ratioP1;P2;durP2;ratioP2
20954;SDS011;10636;19.390;-99.256;2022-09-06T00:01:13;1.80;;;1.00;;
20954;SDS011;10636;19.390;-99.256;2022-09-06T00:03:50;1.20;;;1.02;;
20954;SDS011;10636;19.390;-99.256;2022-09-06T00:06:18;2.53;;;1.10;;
20954;SDS011;10636;19.390;-99.256;2022-09-06T00:08:47;1.52;;;1.10;;
20954;SDS011;10636;19.390;-99.256;2022-09-06T00:11:18;2.53;;;1.27;;
20954;SDS011;10636;19.390;-99.256;2022-09-06T00:13:47;1.85;;;1.10;;
20954;SDS011;10636;19.390;-99.256;2022-09-06T00:16:18;2.13;;;1.10;;
20954;SDS011;10636;19.390;-99.256;2022-09-06T00:18:48;2.42;;;1.10;;
20954;SDS011;10636;19.390;-99.256;2022-09-06T00:21:21;1.65;;;1.20;;
20954;SDS011;10636;19.390;-99.256;2022-09-06T00:23:53;1.45;;;1.35;;
20954;SDS011;10636;19.390;-99.256;2022-09-06T00:26:28;1.35;;;1.25;;
20954;SDS011;10636;19.390;-99.256;2022-09-06T00:28:57;1.33;;;1.23;;
20954;SDS011;10636;19.390;-99.256;2022-09-06T00:31:27;2.13;;;1.40;;
20954;SDS011;10636;19.390;-99.256;2022-09-06T00:33:55;2.55;;;1.35;;
20954;SDS011;10636;19.390;-99.256;2022-09-06T00:36:24;1.75;;;1.30;;
20954;SDS011;10636;19.390;-99.256;2022-09-06T00:38:52;1.30;;;1.20;;
20954;SDS011;10636;19.390;-99.256;2022-09-06T00:41:21;1.20;;;1.10;;
20954;SDS011;10636;19.390;-99.256;2022-09-06T00:43:52;2.20;;;1.13;;
20954;SDS011;10636;19.390;-99.256;2022-09-06T00:46:22;1.40;;;1.30;;
20954;SDS011;10636;19.390;-99.256;2022-09-06T00:48:54;1.40;;;1.10;;
20954;SDS011;10636;19.390;-99.256;2022-09-06T00:51:25;1.23;;;1.13;;
20954;SDS011;10636;19.390;-99.256;2022-09-06T00:54:00;2.25;;;1.00;;
20954;SDS011;10636;19.390;-99.256;2022-09-06T00:56:30;0.95;;;0.90;;
20954;SDS011;10636;19.390;-99.256;2022-09-06T00:59:00;2.00;;;1.05;;
20954;SDS011;10636;19.390;-99.256;2022-09-06T01:01:30;1.55;;;1.20;;
20954;SDS011;10636;19.390;-99.256;2022-09-06T01:04:00;1.17;;;1.08;;
20954;SDS011;10636;19.390;-99.256;2022-09-06T01:06:32;2.17;;;1.10;;
20954;SDS011;10636;19.390;-99.256;2022-09-06T01:09:12;1.55;;;1.33;;
20954;SDS011;10636;19.390;-99.256;2022-09-06T01:11:57;2.20;;;1.48;;
20954;SDS011;10636;19.390;-99.256;2022-09-06T01:14:41;2.75;;;1.58;;
20954;SDS011;10636;19.390;-99.256;2022-09-06T01:17:23;2.63;;;2.40;;
20954;SDS011;10636;19.390;-99.256;2022-09-06T01:20:09;14.43;;;12.68;;
20954;SDS011;10636;19.390;-99.256;2022-09-06T01:26:00;7.40;;;4.20;;
20954;SDS011;10636;19.390;-99.256;2022-09-06T01:28:41;4.50;;;3.50;;
20954;SDS011;10636;19.390;-99.256;2022-09-06T01:31:15;4.35;;;3.90;;
20954;SDS011;10636;19.390;-99.256;2022-09-06T01:33:50;4.63;;;3.95;;
20954;SDS011;10636;19.390;-99.256;2022-09-06T01:36:39;5.40;;;4.90;;
20954;SDS011;10636;19.390;-99.256;2022-09-06T01:39:15;4.28;;;3.75;;
20954;SDS011;10636;19.390;-99.256;2022-09-06T01:41:49;4.20;;;3.80;;
20954;SDS011;10636;19.390;-99.256;2022-09-06T01:44:19;4.28;;;3.80;;
20954;SDS011;10636;19.390;-99.256;2022-09-06T01:46:53;4.00;;;3.60;;
20954;SDS011;10636;19.390;-99.256;2022-09-06T01:49:31;4.10;;;3.70;;
20954;SDS011;10636;19.390;-99.256;2022-09-06T01:52:11;3.67;;;3.38;;
20954;SDS011;10636;19.390;-99.256;2022-09-06T01:54:46;4.43;;;3.35;;
20954;SDS011;10636;19.390;-99.256;2022-09-06T01:57:31;5.40;;;3.50;;
20954;SDS011;10636;19.390;-99.256;2022-09-06T02:00:12;4.63;;;3.20;;
20954;SDS011;10636;19.390;-99.256;2022-09-06T02:02:49;3.72;;;2.95;;
20954;SDS011;10636;19.390;-99.256;2022-09-06T02:05:27;4.00;;;3.13;;
20954;SDS011;10636;19.390;-99.256;2022-09-06T02:07:59;4.97;;;3.05;;
20954;SDS011;10636;19.390;-99.256;2022-09-06T02:10:36;3.63;;;2.70;;
20954;SDS011;10636;19.390;-99.256;2022-09-06T02:13:08;3.47;;;2.65;;
20954;SDS011;10636;19.390;-99.256;2022-09-06T02:15:41;5.03;;;3.38;;
20954;SDS011;10636;19.390;-99.256;2022-09-06T02:18:14;3.88;;;3.08;;
20954;SDS011;10636;19.390;-99.256;2022-09-06T02:20:46;3.72;;;2.92;;
20954;SDS011;10636;19.390;-99.256;2022-09-06T02:23:19;3.92;;;2.90;;
20954;SDS011;10636;19.390;-99.256;2022-09-06T02:25:52;3.50;;;2.72;;
20954;SDS011;10636;19.390;-99.256;2022-09-06T02:28:23;2.90;;;2.70;;
20954;SDS011;10636;19.390;-99.256;2022-09-06T02:30:54;2.90;;;2.70;;
20954;SDS011;10636;19.390;-99.256;2022-09-06T02:33:26;3.40;;;3.05;;
20954;SDS011;10636;19.390;-99.256;2022-09-06T02:36:01;4.30;;;3.03;;
20954;SDS011;10636;19.390;-99.256;2022-09-06T02:38:32;3.33;;;2.80;;
20954;SDS011;10636;19.390;-99.256;2022-09-06T02:41:03;3.55;;;2.78;;
20954;SDS011;10636;19.390;-99.256;2022-09-06T02:43:32;3.55;;;3.10;;
20954;SDS011;10636;19.390;-99.256;2022-09-06T02:46:03;2.90;;;2.60;;
20954;SDS011;10636;19.390;-99.256;2022-09-06T02:48:31;5.88;;;5.00;;
20954;SDS011;10636;19.390;-99.256;2022-09-06T02:51:01;9.85;;;7.47;;
20954;SDS011;10636;19.390;-99.256;2022-09-06T02:53:30;9.88;;;7.47;;
20954;SDS011;10636;19.390;-99.256;2022-09-06T02:55:59;9.30;;;6.78;;
20954;SDS011;10636;19.390;-99.256;2022-09-06T02:58:27;9.48;;;7.60;;
20954;SDS011;10636;19.390;-99.256;2022-09-06T03:00:56;7.55;;;6.63;;
20954;SDS011;10636;19.390;-99.256;2022-09-06T03:03:26;7.55;;;6.40;;
20954;SDS011;10636;19.390;-99.256;2022-09-06T03:05:54;6.68;;;5.97;;
20954;SDS011;10636;19.390;-99.256;2022-09-06T03:08:23;6.63;;;5.40;;
20954;SDS011;10636;19.390;-99.256;2022-09-06T03:10:54;7.40;;;5.43;;
20954;SDS011;10636;19.390;-99.256;2022-09-06T03:13:23;5.68;;;4.72;;
20954;SDS011;10636;19.390;-99.256;2022-09-06T03:15:52;6.75;;;4.70;;
20954;SDS011;10636;19.390;-99.256;2022-09-06T03:18:22;5.35;;;4.40;;
20954;SDS011;10636;19.390;-99.256;2022-09-06T03:20:53;6.28;;;4.10;;
20954;SDS011;10636;19.390;-99.256;2022-09-06T03:23:23;4.68;;;3.78;;
20954;SDS011;10636;19.390;-99.256;2022-09-06T03:25:52;4.50;;;4.10;;
20954;SDS011;10636;19.390;-99.256;2022-09-06T03:28:21;4.43;;;4.03;;
20954;SDS011;10636;19.390;-99.256;2022-09-06T03:30:50;4.65;;;3.83;;
20954;SDS011;10636;19.390;-99.256;2022-09-06T03:33:19;4.60;;;4.05;;
20954;SDS011;10636;19.390;-99.256;2022-09-06T03:35:48;4.60;;;4.10;;
20954;SDS011;10636;19.390;-99.256;2022-09-06T03:38:19;4.40;;;4.00;;
20954;SDS011;10636;19.390;-99.256;2022-09-06T03:40:49;4.30;;;3.92;;
20954;SDS011;10636;19.390;-99.256;2022-09-06T03:43:18;4.55;;;3.83;;
20954;SDS011;10636;19.390;-99.256;2022-09-06T03:45:48;4.20;;;3.80;;
20954;SDS011;10636;19.390;-99.256;2022-09-06T03:48:18;4.63;;;3.80;;
20954;SDS011;10636;19.390;-99.256;2022-09-06T03:50:48;4.30;;;3.90;;
20954;SDS011;10636;19.390;-99.256;2022-09-06T03:53:20;3.80;;;3.50;;
20954;SDS011;10636;19.390;-99.256;2022-09-06T03:55:49;4.13;;;3.75;;
20954;SDS011;10636;19.390;-99.256;2022-09-06T03:58:20;4.13;;;3.70;;
20954;SDS011;10636;19.390;-99.256;2022-09-06T04:00:50;4.63;;;3.78;;
20954;SDS011;10636;19.390;-99.256;2022-09-06T04:03:26;4.30;;;3.88;;
20954;SDS011;10636;19.390;-99.256;2022-09-06T04:05:55;4.03;;;3.63;;
20954;SDS011;10636;19.390;-99.256;2022-09-06T04:08:25;4.20;;;3.80;;
20954;SDS011;10636;19.390;-99.256;2022-09-06T04:10:53;4.00;;;3.70;;
20954;SDS011;10636;19.390;-99.256;2022-09-06T04:13:22;4.05;;;3.75;;
20954;SDS011;10636;19.390;-99.256;2022-09-06T04:15:53;3.60;;;3.38;;
20954;SDS011;10636;19.390;-99.256;2022-09-06T04:18:22;3.70;;;3.40;;
20954;SDS011;10636;19.390;-99.256;2022-09-06T04:20:51;3.58;;;3.28;;
20954;SDS011;10636;19.390;-99.256;2022-09-06T04:23:22;3.45;;;3.17;;
20954;SDS011;10636;19.390;-99.256;2022-09-06T04:25:53;3.78;;;3.47;;
20954;SDS011;10636;19.390;-99.256;2022-09-06T04:28:23;3.78;;;3.47;;
20954;SDS011;10636;19.390;-99.256;2022-09-06T04:30:52;3.60;;;3.30;;
20954;SDS011;10636;19.390;-99.256;2022-09-06T04:33:22;3.60;;;3.30;;
20954;SDS011;10636;19.390;-99.256;2022-09-06T04:35:51;3.63;;;3.33;;
20954;SDS011;10636;19.390;-99.256;2022-09-06T04:38:21;3.97;;;3.47;;
20954;SDS011;10636;19.390;-99.256;2022-09-06T04:40:49;3.75;;;3.40;;
20954;SDS011;10636;19.390;-99.256;2022-09-06T04:43:20;3.50;;;3.20;;
20954;SDS011;10636;19.390;-99.256;2022-09-06T04:45:48;3.45;;;3.15;;
20954;SDS011;10636;19.390;-99.256;2022-09-06T04:48:16;3.72;;;3.42;;
20954;SDS011;10636;19.390;-99.256;2022-09-06T04:50:45;3.45;;;3.17;;
20954;SDS011;10636;19.390;-99.256;2022-09-06T04:53:13;3.30;;;3.00;;
20954;SDS011;10636;19.390;-99.256;2022-09-06T04:55:42;3.70;;;3.30;;
20954;SDS011;10636;19.390;-99.256;2022-09-06T04:58:10;3.50;;;3.20;;
20954;SDS011;10636;19.390;-99.256;2022-09-06T05:00:40;3.40;;;3.10;;
20954;SDS011;10636;19.390;-99.256;2022-09-06T05:03:09;3.50;;;3.20;;
20954;SDS011;10636;19.390;-99.256;2022-09-06T05:05:37;3.50;;;3.22;;
20954;SDS011;10636;19.390;-99.256;2022-09-06T05:08:06;3.22;;;3.03;;
20954;SDS011;10636;19.390;-99.256;2022-09-06T05:10:34;3.35;;;3.05;;
20954;SDS011;10636;19.390;-99.256;2022-09-06T05:13:03;3.15;;;2.95;;
20954;SDS011;10636;19.390;-99.256;2022-09-06T05:15:31;3.40;;;3.10;;
20954;SDS011;10636;19.390;-99.256;2022-09-06T05:18:04;3.50;;;3.20;;
20954;SDS011;10636;19.390;-99.256;2022-09-06T05:20:33;3.08;;;2.80;;
20954;SDS011;10636;19.390;-99.256;2022-09-06T05:23:01;3.88;;;3.10;;
20954;SDS011;10636;19.390;-99.256;2022-09-06T05:25:30;2.92;;;2.70;;
20954;SDS011;10636;19.390;-99.256;2022-09-06T05:27:58;3.83;;;3.10;;
20954;SDS011;10636;19.390;-99.256;2022-09-06T05:30:27;3.20;;;2.90;;
20954;SDS011;10636;19.390;-99.256;2022-09-06T05:33:00;3.05;;;2.83;;
20954;SDS011;10636;19.390;-99.256;2022-09-06T05:35:32;2.90;;;2.70;;
20954;SDS011;10636;19.390;-99.256;2022-09-06T05:38:00;3.08;;;2.60;;
20954;SDS011;10636;19.390;-99.256;2022-09-06T05:40:29;2.88;;;2.67;;
20954;SDS011;10636;19.390;-99.256;2022-09-06T05:42:58;2.90;;;2.60;;
20954;SDS011;10636;19.390;-99.256;2022-09-06T05:45:27;2.90;;;2.65;;
20954;SDS011;10636;19.390;-99.256;2022-09-06T05:47:55;2.78;;;2.58;;
20954;SDS011;10636;19.390;-99.256;2022-09-06T05:50:26;2.78;;;2.58;;
20954;SDS011;10636;19.390;-99.256;2022-09-06T05:52:54;2.50;;;2.30;;
20954;SDS011;10636;19.390;-99.256;2022-09-06T05:55:24;2.55;;;2.35;;
20954;SDS011;10636;19.390;-99.256;2022-09-06T05:57:54;2.95;;;2.20;;
20954;SDS011;10636;19.390;-99.256;2022-09-06T06:00:29;2.47;;;2.28;;
20954;SDS011;10636;19.390;-99.256;2022-09-06T06:03:04;2.53;;;2.33;;
20954;SDS011;10636;19.390;-99.256;2022-09-06T06:05:52;2.40;;;2.20;;
20954;SDS011;10636;19.390;-99.256;2022-09-06T06:08:29;2.33;;;2.13;;
20954;SDS011;10636;19.390;-99.256;2022-09-06T06:11:06;2.47;;;2.30;;
20954;SDS011;10636;19.390;-99.256;2022-09-06T06:13:42;2.20;;;2.00;;
20954;SDS011;10636;19.390;-99.256;2022-09-06T06:16:26;2.50;;;2.30;;
20954;SDS011;10636;19.390;-99.256;2022-09-06T06:19:14;2.00;;;1.90;;
20954;SDS011;10636;19.390;-99.256;2022-09-06T06:24:42;2.05;;;1.95;;
20954;SDS011;10636;19.390;-99.256;2022-09-06T06:27:16;2.40;;;2.20;;
20954;SDS011;10636;19.390;-99.256;2022-09-06T06:29:51;2.13;;;1.90;;
20954;SDS011;10636;19.390;-99.256;2022-09-06T06:32:27;2.03;;;1.83;;
20954;SDS011;10636;19.390;-99.256;2022-09-06T06:34:57;2.35;;;2.15;;
20954;SDS011;10636;19.390;-99.256;2022-09-06T06:37:42;1.95;;;1.85;;
20954;SDS011;10636;19.390;-99.256;2022-09-06T06:40:12;2.00;;;1.90;;
20954;SDS011;10636;19.390;-99.256;2022-09-06T06:42:45;2.00;;;1.90;;
20954;SDS011;10636;19.390;-99.256;2022-09-06T06:45:18;1.98;;;1.88;;
20954;SDS011;10636;19.390;-99.256;2022-09-06T06:47:49;2.10;;;1.90;;
20954;SDS011;10636;19.390;-99.256;2022-09-06T06:50:19;1.80;;;1.70;;
20954;SDS011;10636;19.390;-99.256;2022-09-06T06:52:50;1.70;;;1.60;;
20954;SDS011;10636;19.390;-99.256;2022-09-06T06:55:22;1.73;;;1.63;;
20954;SDS011;10636;19.390;-99.256;2022-09-06T06:57:58;2.38;;;1.80;;
20954;SDS011;10636;19.390;-99.256;2022-09-06T07:00:27;1.75;;;1.65;;
20954;SDS011;10636;19.390;-99.256;2022-09-06T07:02:59;1.90;;;1.80;;
20954;SDS011;10636;19.390;-99.256;2022-09-06T07:05:29;1.77;;;1.50;;
20954;SDS011;10636;19.390;-99.256;2022-09-06T07:08:02;1.90;;;1.80;;
20954;SDS011;10636;19.390;-99.256;2022-09-06T07:10:32;1.60;;;1.50;;
20954;SDS011;10636;19.390;-99.256;2022-09-06T07:13:13;2.05;;;1.50;;
20954;SDS011;10636;19.390;-99.256;2022-09-06T07:15:47;1.92;;;1.50;;
20954;SDS011;10636;19.390;-99.256;2022-09-06T07:18:16;1.60;;;1.50;;
20954;SDS011;10636;19.390;-99.256;2022-09-06T07:20:46;1.60;;;1.50;;
20954;SDS011;10636;19.390;-99.256;2022-09-06T07:23:16;1.70;;;1.60;;
20954;SDS011;10636;19.390;-99.256;2022-09-06T07:25:46;1.50;;;1.40;;
20954;SDS011;10636;19.390;-99.256;2022-09-06T07:28:16;1.60;;;1.50;;
20954;SDS011;10636;19.390;-99.256;2022-09-06T07:30:48;1.70;;;1.60;;
20954;SDS011;10636;19.390;-99.256;2022-09-06T07:33:21;1.60;;;1.50;;
20954;SDS011;10636;19.390;-99.256;2022-09-06T07:35:56;1.63;;;1.52;;
20954;SDS011;10636;19.390;-99.256;2022-09-06T07:38:29;1.50;;;1.40;;
20954;SDS011;10636;19.390;-99.256;2022-09-06T07:40:59;1.70;;;1.60;;
20954;SDS011;10636;19.390;-99.256;2022-09-06T07:43:29;1.50;;;1.40;;
20954;SDS011;10636;19.390;-99.256;2022-09-06T07:45:58;1.52;;;1.42;;
20954;SDS011;10636;19.390;-99.256;2022-09-06T07:48:31;1.40;;;1.30;;
20954;SDS011;10636;19.390;-99.256;2022-09-06T07:51:04;1.67;;;1.52;;
20954;SDS011;10636;19.390;-99.256;2022-09-06T07:53:35;1.92;;;1.60;;
20954;SDS011;10636;19.390;-99.256;2022-09-06T07:56:05;1.50;;;1.40;;
20954;SDS011;10636;19.390;-99.256;2022-09-06T07:58:36;1.40;;;1.30;;
20954;SDS011;10636;19.390;-99.256;2022-09-06T08:03:54;1.65;;;1.55;;
20954;SDS011;10636;19.390;-99.256;2022-09-06T08:06:24;1.40;;;1.30;;
20954;SDS011;10636;19.390;-99.256;2022-09-06T08:08:55;1.67;;;1.35;;
20954;SDS011;10636;19.390;-99.256;2022-09-06T08:11:24;2.33;;;1.42;;
20954;SDS011;10636;19.390;-99.256;2022-09-06T08:13:54;1.60;;;1.50;;
20954;SDS011;10636;19.390;-99.256;2022-09-06T08:16:25;1.60;;;1.50;;
20954;SDS011;10636;19.390;-99.256;2022-09-06T08:18:54;1.55;;;1.25;;
20954;SDS011;10636;19.390;-99.256;2022-09-06T08:21:25;1.42;;;1.33;;
20954;SDS011;10636;19.390;-99.256;2022-09-06T08:23:56;1.50;;;1.40;;
20954;SDS011;10636;19.390;-99.256;2022-09-06T08:26:26;1.65;;;1.33;;
20954;SDS011;10636;19.390;-99.256;2022-09-06T08:28:56;1.35;;;1.25;;
20954;SDS011;10636;19.390;-99.256;2022-09-06T08:31:26;1.50;;;1.40;;
20954;SDS011;10636;19.390;-99.256;2022-09-06T08:33:56;1.58;;;1.48;;
20954;SDS011;10636;19.390;-99.256;2022-09-06T08:36:25;1.30;;;1.20;;
20954;SDS011;10636;19.390;-99.256;2022-09-06T08:38:56;1.50;;;1.40;;
20954;SDS011;10636;19.390;-99.256;2022-09-06T08:41:26;1.50;;;1.40;;
20954;SDS011;10636;19.390;-99.256;2022-09-06T08:44:00;1.30;;;1.20;;
20954;SDS011;10636;19.390;-99.256;2022-09-06T08:46:31;1.30;;;1.20;;
20954;SDS011;10636;19.390;-99.256;2022-09-06T08:49:04;1.58;;;1.40;;
20954;SDS011;10636;19.390;-99.256;2022-09-06T08:54:50;1.23;;;1.13;;
20954;SDS011;10636;19.390;-99.256;2022-09-06T08:57:29;1.40;;;1.30;;
20954;SDS011;10636;19.390;-99.256;2022-09-06T09:00:07;1.35;;;1.25;;
20954;SDS011;10636;19.390;-99.256;2022-09-06T09:02:42;1.70;;;1.25;;
20954;SDS011;10636;19.390;-99.256;2022-09-06T09:05:21;1.45;;;1.30;;
20954;SDS011;10636;19.390;-99.256;2022-09-06T09:07:59;1.23;;;1.13;;
20954;SDS011;10636;19.390;-99.256;2022-09-06T09:10:47;1.27;;;1.17;;
20954;SDS011;10636;19.390;-99.256;2022-09-06T09:13:23;1.30;;;1.20;;
20954;SDS011;10636;19.390;-99.256;2022-09-06T09:15:55;1.10;;;1.10;;
20954;SDS011;10636;19.390;-99.256;2022-09-06T09:18:30;1.30;;;1.20;;
20954;SDS011;10636;19.390;-99.256;2022-09-06T09:21:01;1.42;;;1.30;;
20954;SDS011;10636;19.390;-99.256;2022-09-06T09:23:30;1.40;;;1.30;;
20954;SDS011;10636;19.390;-99.256;2022-09-06T09:26:01;1.40;;;1.30;;
20954;SDS011;10636;19.390;-99.256;2022-09-06T09:28:32;1.23;;;1.20;;
20954;SDS011;10636;19.390;-99.256;2022-09-06T09:31:01;1.20;;;1.20;;
20954;SDS011;10636;19.390;-99.256;2022-09-06T09:33:31;1.45;;;1.08;;
20954;SDS011;10636;19.390;-99.256;2022-09-06T09:36:00;3.60;;;1.33;;
20954;SDS011;10636;19.390;-99.256;2022-09-06T09:38:35;1.33;;;1.20;;
20954;SDS011;10636;19.390;-99.256;2022-09-06T09:41:23;1.23;;;1.15;;
20954;SDS011;10636;19.390;-99.256;2022-09-06T09:43:55;1.50;;;1.40;;
20954;SDS011;10636;19.390;-99.256;2022-09-06T09:46:29;1.65;;;1.20;;
20954;SDS011;10636;19.390;-99.256;2022-09-06T09:49:00;1.35;;;1.30;;
20954;SDS011;10636;19.390;-99.256;2022-09-06T09:51:32;1.23;;;1.13;;
20954;SDS011;10636;19.390;-99.256;2022-09-06T09:54:02;1.10;;;1.10;;
20954;SDS011;10636;19.390;-99.256;2022-09-06T09:56:34;1.27;;;1.17;;
20954;SDS011;10636;19.390;-99.256;2022-09-06T09:59:15;1.23;;;1.15;;
20954;SDS011;10636;19.390;-99.256;2022-09-06T10:01:46;1.23;;;1.15;;
20954;SDS011;10636;19.390;-99.256;2022-09-06T10:04:19;1.45;;;1.33;;
20954;SDS011;10636;19.390;-99.256;2022-09-06T10:06:52;1.25;;;1.15;;
20954;SDS011;10636;19.390;-99.256;2022-09-06T10:09:33;1.20;;;1.10;;
20954;SDS011;10636;19.390;-99.256;2022-09-06T10:12:05;1.23;;;1.23;;
20954;SDS011;10636;19.390;-99.256;2022-09-06T10:14:39;1.20;;;1.10;;
20954;SDS011;10636;19.390;-99.256;2022-09-06T10:17:16;1.35;;;1.20;;
20954;SDS011;10636;19.390;-99.256;2022-09-06T10:19:46;1.35;;;1.17;;
20954;SDS011;10636;19.390;-99.256;2022-09-06T10:22:20;1.33;;;1.20;;
20954;SDS011;10636;19.390;-99.256;2022-09-06T10:28:12;1.20;;;1.10;;
20954;SDS011;10636;19.390;-99.256;2022-09-06T10:30:59;1.35;;;1.25;;
20954;SDS011;10636;19.390;-99.256;2022-09-06T10:33:36;1.60;;;1.15;;
20954;SDS011;10636;19.390;-99.256;2022-09-06T10:38:49;1.30;;;1.20;;
20954;SDS011;10636;19.390;-99.256;2022-09-06T10:41:24;1.33;;;1.17;;
20954;SDS011;10636;19.390;-99.256;2022-09-06T10:44:08;1.30;;;1.20;;
20954;SDS011;10636;19.390;-99.256;2022-09-06T10:46:50;1.10;;;1.10;;
20954;SDS011;10636;19.390;-99.256;2022-09-06T10:49:25;1.85;;;1.40;;
20954;SDS011;10636;19.390;-99.256;2022-09-06T10:51:55;2.40;;;1.55;;
20954;SDS011;10636;19.390;-99.256;2022-09-06T10:54:28;4.28;;;1.90;;
20954;SDS011;10636;19.390;-99.256;2022-09-06T10:57:00;3.92;;;2.35;;
20954;SDS011;10636;19.390;-99.256;2022-09-06T10:59:36;2.05;;;1.85;;
20954;SDS011;10636;19.390;-99.256;2022-09-06T11:02:10;2.95;;;2.42;;
20954;SDS011;10636;19.390;-99.256;2022-09-06T11:04:48;3.38;;;2.50;;
20954;SDS011;10636;19.390;-99.256;2022-09-06T11:07:18;4.07;;;2.65;;
20954;SDS011;10636;19.390;-99.256;2022-09-06T11:09:53;10.88;;;5.07;;
20954;SDS011;10636;19.390;-99.256;2022-09-06T11:12:29;7.65;;;4.60;;
20954;SDS011;10636;19.390;-99.256;2022-09-06T11:15:05;8.27;;;4.50;;
20954;SDS011;10636;19.390;-99.256;2022-09-06T11:17:39;9.15;;;4.15;;
20954;SDS011;10636;19.390;-99.256;2022-09-06T11:20:13;7.40;;;3.70;;
20954;SDS011;10636;19.390;-99.256;2022-09-06T11:22:52;7.32;;;4.32;;
20954;SDS011;10636;19.390;-99.256;2022-09-06T11:28:41;6.22;;;3.95;;
20954;SDS011;10636;19.390;-99.256;2022-09-06T11:31:16;5.25;;;3.60;;
20954;SDS011;10636;19.390;-99.256;2022-09-06T11:34:00;6.55;;;3.53;;
20954;SDS011;10636;19.390;-99.256;2022-09-06T11:36:33;5.10;;;3.58;;
20954;SDS011;10636;19.390;-99.256;2022-09-06T11:39:04;4.72;;;3.30;;
20954;SDS011;10636;19.390;-99.256;2022-09-06T11:41:35;6.90;;;3.22;;
20954;SDS011;10636;19.390;-99.256;2022-09-06T11:44:06;3.88;;;3.00;;
20954;SDS011;10636;19.390;-99.256;2022-09-06T11:49:35;3.90;;;3.08;;
20954;SDS011;10636;19.390;-99.256;2022-09-06T11:55:38;4.80;;;2.85;;
20954;SDS011;10636;19.390;-99.256;2022-09-06T11:58:09;3.70;;;2.60;;
20954;SDS011;10636;19.390;-99.256;2022-09-06T12:04:01;3.80;;;2.60;;
20954;SDS011;10636;19.390;-99.256;2022-09-06T12:06:34;3.10;;;2.65;;
20954;SDS011;10636;19.390;-99.256;2022-09-06T12:12:04;3.58;;;2.22;;
20954;SDS011;10636;19.390;-99.256;2022-09-06T12:14:33;2.72;;;2.40;;
20954;SDS011;10636;19.390;-99.256;2022-09-06T12:23:41;3.13;;;2.33;;
20954;SDS011;10636;19.390;-99.256;2022-09-06T12:26:10;2.60;;;2.30;;
20954;SDS011;10636;19.390;-99.256;2022-09-06T12:28:42;2.92;;;2.30;;
20954;SDS011;10636;19.390;-99.256;2022-09-06T12:31:23;3.42;;;2.15;;
20954;SDS011;10636;19.390;-99.256;2022-09-06T12:34:04;2.40;;;2.13;;
20954;SDS011;10636;19.390;-99.256;2022-09-06T12:36:38;2.97;;;2.28;;
20954;SDS011;10636;19.390;-99.256;2022-09-06T12:39:15;3.05;;;2.10;;
20954;SDS011;10636;19.390;-99.256;2022-09-06T12:41:47;2.15;;;1.90;;
20954;SDS011;10636;19.390;-99.256;2022-09-06T12:44:22;3.38;;;2.38;;
20954;SDS011;10636;19.390;-99.256;2022-09-06T12:46:57;2.50;;;2.30;;
20954;SDS011;10636;19.390;-99.256;2022-09-06T12:49:33;2.38;;;2.08;;
20954;SDS011;10636;19.390;-99.256;2022-09-06T12:52:06;2.40;;;1.83;;
20954;SDS011;10636;19.390;-99.256;2022-09-06T12:54:44;3.25;;;2.13;;
20954;SDS011;10636;19.390;-99.256;2022-09-06T12:57:16;2.65;;;2.05;;
20954;SDS011;10636;19.390;-99.256;2022-09-06T12:59:47;2.58;;;2.20;;
20954;SDS011;10636;19.390;-99.256;2022-09-06T13:02:17;3.78;;;2.30;;
20954;SDS011;10636;19.390;-99.256;2022-09-06T13:04:50;2.45;;;2.25;;
20954;SDS011;10636;19.390;-99.256;2022-09-06T13:07:24;2.38;;;2.17;;
20954;SDS011;10636;19.390;-99.256;2022-09-06T13:09:54;2.60;;;2.10;;
20954;SDS011;10636;19.390;-99.256;2022-09-06T13:12:24;2.50;;;2.03;;
20954;SDS011;10636;19.390;-99.256;2022-09-06T13:14:54;2.50;;;2.30;;
20954;SDS011;10636;19.390;-99.256;2022-09-06T13:17:25;2.30;;;2.10;;
20954;SDS011;10636;19.390;-99.256;2022-09-06T13:19:54;2.47;;;2.15;;
20954;SDS011;10636;19.390;-99.256;2022-09-06T13:22:39;3.42;;;2.35;;
20954;SDS011;10636;19.390;-99.256;2022-09-06T13:25:14;3.03;;;2.30;;
20954;SDS011;10636;19.390;-99.256;2022-09-06T13:27:49;2.53;;;2.33;;
20954;SDS011;10636;19.390;-99.256;2022-09-06T13:30:29;2.75;;;2.47;;
20954;SDS011;10636;19.390;-99.256;2022-09-06T13:33:03;3.50;;;2.50;;
20954;SDS011;10636;19.390;-99.256;2022-09-06T13:35:34;3.28;;;2.40;;
20954;SDS011;10636;19.390;-99.256;2022-09-06T13:38:26;2.70;;;2.50;;
20954;SDS011;10636;19.390;-99.256;2022-09-06T13:40:59;3.75;;;2.60;;
20954;SDS011;10636;19.390;-99.256;2022-09-06T13:43:27;3.22;;;2.40;;
20954;SDS011;10636;19.390;-99.256;2022-09-06T13:46:04;2.40;;;2.20;;
20954;SDS011;10636;19.390;-99.256;2022-09-06T13:48:35;5.57;;;3.28;;
20954;SDS011;10636;19.390;-99.256;2022-09-06T13:51:04;5.15;;;3.08;;
20954;SDS011;10636;19.390;-99.256;2022-09-06T13:53:35;4.07;;;3.28;;
20954;SDS011;10636;19.390;-99.256;2022-09-06T13:56:07;5.65;;;3.60;;
20954;SDS011;10636;19.390;-99.256;2022-09-06T13:58:40;6.05;;;3.55;;
20954;SDS011;10636;19.390;-99.256;2022-09-06T14:01:08;4.97;;;3.90;;
20954;SDS011;10636;19.390;-99.256;2022-09-06T14:03:39;5.43;;;4.35;;
20954;SDS011;10636;19.390;-99.256;2022-09-06T14:06:08;9.98;;;5.07;;
20954;SDS011;10636;19.390;-99.256;2022-09-06T14:08:38;7.32;;;5.35;;
20954;SDS011;10636;19.390;-99.256;2022-09-06T14:11:09;7.68;;;5.10;;
20954;SDS011;10636;19.390;-99.256;2022-09-06T14:13:44;8.98;;;5.85;;
20954;SDS011;10636;19.390;-99.256;2022-09-06T14:16:15;6.72;;;5.85;;
20954;SDS011;10636;19.390;-99.256;2022-09-06T14:18:46;8.32;;;5.88;;
20954;SDS011;10636;19.390;-99.256;2022-09-06T14:21:22;7.63;;;6.07;;
20954;SDS011;10636;19.390;-99.256;2022-09-06T14:23:52;8.00;;;6.50;;
20954;SDS011;10636;19.390;-99.256;2022-09-06T14:26:22;9.50;;;6.47;;
20954;SDS011;10636;19.390;-99.256;2022-09-06T14:28:51;9.15;;;7.30;;
20954;SDS011;10636;19.390;-99.256;2022-09-06T14:31:20;8.52;;;7.40;;
20954;SDS011;10636;19.390;-99.256;2022-09-06T14:33:50;9.40;;;7.10;;
20954;SDS011;10636;19.390;-99.256;2022-09-06T14:36:21;8.25;;;6.85;;
20954;SDS011;10636;19.390;-99.256;2022-09-06T14:38:57;8.50;;;7.40;;
20954;SDS011;10636;19.390;-99.256;2022-09-06T14:41:27;8.02;;;7.03;;
20954;SDS011;10636;19.390;-99.256;2022-09-06T14:43:56;9.68;;;6.57;;
20954;SDS011;10636;19.390;-99.256;2022-09-06T14:46:26;9.13;;;7.20;;
20954;SDS011;10636;19.390;-99.256;2022-09-06T14:49:00;7.57;;;6.10;;
20954;SDS011;10636;19.390;-99.256;2022-09-06T14:51:32;6.97;;;6.00;;
20954;SDS011;10636;19.390;-99.256;2022-09-06T14:54:03;7.57;;;5.15;;
20954;SDS011;10636;19.390;-99.256;2022-09-06T14:56:35;6.20;;;5.30;;
20954;SDS011;10636;19.390;-99.256;2022-09-06T14:59:05;8.65;;;5.22;;
20954;SDS011;10636;19.390;-99.256;2022-09-06T15:01:34;12.00;;;5.07;;
20954;SDS011;10636;19.390;-99.256;2022-09-06T15:04:05;8.25;;;4.90;;
20954;SDS011;10636;19.390;-99.256;2022-09-06T15:06:36;7.40;;;5.15;;
20954;SDS011;10636;19.390;-99.256;2022-09-06T15:09:16;6.43;;;5.30;;
20954;SDS011;10636;19.390;-99.256;2022-09-06T15:11:45;5.97;;;4.80;;
20954;SDS011;10636;19.390;-99.256;2022-09-06T15:14:20;6.28;;;5.07;;
20954;SDS011;10636;19.390;-99.256;2022-09-06T15:16:53;6.40;;;5.40;;
20954;SDS011;10636;19.390;-99.256;2022-09-06T15:19:27;7.78;;;5.70;;
20954;SDS011;10636;19.390;-99.256;2022-09-06T15:21:58;6.60;;;5.70;;
20954;SDS011;10636;19.390;-99.256;2022-09-06T15:24:28;7.00;;;5.63;;
20954;SDS011;10636;19.390;-99.256;2022-09-06T15:26:56;6.53;;;5.40;;
20954;SDS011;10636;19.390;-99.256;2022-09-06T15:29:25;8.50;;;5.20;;
20954;SDS011;10636;19.390;-99.256;2022-09-06T15:31:57;7.53;;;5.50;;